logo
Search for airport 
image banner adimage banner adimage banner ad
image banner ad

CST5 - Sable Island

Located in , Canada

ICAO - CST5, IATA -

Data provided by Airmate  

General information

Coordinates: N43°55'59" W60°0'20"
Elevation is 15 feet MSL.
Magnetic variation is -17.9439° East
View others Airports in Nova Scotia

Operational data

Special qualification required
Current time UTC:
Current local time:
Weather at : - ( 0 km )
METAR: LMML 230515Z 31012KT CAVOK 15/10 Q1007 NOSIG
View NOTAMs / SUP AIP / TFR affecting this airport [VIEW]
Communications frequencies: [VIEW]

Runways:

Airport contact information

Address: Canada

Satellite view of CST5